createdAt,value
2019-03-20T00:00:43.652Z,0.57
2019-03-20T00:03:15.601Z,0.52
2019-03-20T00:05:47.561Z,0.48
2019-03-20T00:08:19.451Z,0.49
2019-03-20T00:10:51.434Z,0.49
2019-03-20T00:13:23.346Z,0.49
2019-03-20T00:15:55.371Z,0.40
2019-03-20T00:18:28.591Z,0.39
2019-03-20T00:21:00.625Z,0.37
2019-03-20T00:23:32.631Z,0.28
2019-03-20T00:26:04.628Z,0.22
2019-03-20T00:28:36.669Z,0.20
2019-03-20T00:31:08.615Z,0.14
2019-03-20T00:33:40.607Z,0.09
2019-03-20T00:36:12.911Z,0.06
2019-03-20T00:38:44.975Z,0.03
2019-03-20T00:41:16.884Z,0.05
2019-03-20T00:43:48.853Z,0.00
2019-03-20T00:46:20.761Z,-0.02
2019-03-20T00:48:52.732Z,-0.07
2019-03-20T00:51:24.696Z,-0.07
2019-03-20T00:53:56.616Z,-0.08
2019-03-20T00:56:28.478Z,-0.11
2019-03-20T00:59:00.458Z,-0.08
2019-03-20T01:01:34.100Z,-0.10
2019-03-20T01:04:06.201Z,-0.11
2019-03-20T01:06:38.180Z,-0.06
2019-03-20T01:09:10.092Z,-0.12
2019-03-20T01:11:42.037Z,-0.19
2019-03-20T01:14:13.909Z,-0.15
2019-03-20T01:16:47.058Z,-0.22
2019-03-20T01:19:18.970Z,-0.23
2019-03-20T01:21:51.024Z,-0.21
2019-03-20T01:24:22.932Z,-0.17
2019-03-20T01:26:54.832Z,-0.23
2019-03-20T01:29:27.876Z,-0.26
2019-03-20T01:31:59.840Z,-0.32
2019-03-20T01:34:31.797Z,-0.34
2019-03-20T01:37:03.907Z,-0.36
2019-03-20T01:39:35.767Z,-0.42
2019-03-20T01:42:07.680Z,-0.37
2019-03-20T01:44:39.659Z,-0.40
2019-03-20T01:47:11.656Z,-0.44
2019-03-20T01:49:43.568Z,-0.48
2019-03-20T01:52:15.464Z,-0.47
2019-03-20T01:54:47.443Z,-0.49
2019-03-20T01:57:19.339Z,-0.51
2019-03-20T01:59:51.233Z,-0.52
2019-03-20T02:02:23.219Z,-0.48
2019-03-20T02:04:55.251Z,-0.47
2019-03-20T02:07:27.132Z,-0.48
2019-03-20T02:09:59.044Z,-0.48
2019-03-20T02:12:31.007Z,-0.56
2019-03-20T02:15:06.122Z,-0.60
2019-03-20T02:17:40.488Z,-0.61
2019-03-20T02:20:16.748Z,-0.56
2019-03-20T02:22:50.721Z,-0.55
2019-03-20T02:25:25.108Z,-0.61
2019-03-20T02:27:57.435Z,-0.58
2019-03-20T02:30:29.601Z,-0.60
2019-03-20T02:33:07.585Z,-0.65
2019-03-20T02:35:51.447Z,-0.60
2019-03-20T02:38:14.987Z,-0.66
2019-03-20T02:40:47.033Z,-0.67
2019-03-20T02:43:18.963Z,-0.65
2019-03-20T02:45:52.433Z,-0.61
2019-03-20T02:48:24.369Z,-0.68
2019-03-20T02:50:57.039Z,-0.72
2019-03-20T02:53:29.992Z,-0.71
2019-03-20T02:56:01.941Z,-0.73
2019-03-20T02:58:33.986Z,-0.78
2019-03-20T03:01:05.959Z,-0.77
2019-03-20T03:03:39.736Z,-0.76
2019-03-20T03:06:11.820Z,-0.74
2019-03-20T03:08:46.905Z,-0.79
2019-03-20T03:11:20.563Z,-0.82
2019-03-20T03:13:52.645Z,-0.84
2019-03-20T03:16:24.607Z,-0.86
2019-03-20T03:18:56.483Z,-0.82
2019-03-20T03:21:28.423Z,-0.68
2019-03-20T03:24:00.423Z,-0.69
2019-03-20T03:26:32.321Z,-0.71
2019-03-20T03:29:04.274Z,-0.65
2019-03-20T03:31:36.221Z,-0.73
2019-03-20T03:34:09.944Z,-0.80
2019-03-20T03:36:41.936Z,-0.82
2019-03-20T03:39:13.819Z,-0.87
2019-03-20T03:41:45.678Z,-0.91
2019-03-20T03:44:18.681Z,-0.93
2019-03-20T03:46:50.589Z,-0.95
2019-03-20T03:49:22.535Z,-0.96
2019-03-20T03:51:54.509Z,-0.97
2019-03-20T03:54:26.447Z,-0.96
2019-03-20T03:56:58.391Z,-0.91
2019-03-20T03:59:30.335Z,-0.97
2019-03-20T04:02:02.304Z,-1.01
2019-03-20T04:04:34.150Z,-0.99
2019-03-20T04:07:06.212Z,-0.98
2019-03-20T04:09:38.163Z,-0.91
2019-03-20T04:12:10.144Z,-0.97
2019-03-20T04:14:42.052Z,-1.03
2019-03-20T04:17:28.519Z,-1.07
2019-03-20T04:20:00.558Z,-1.11
2019-03-20T04:22:32.557Z,-1.15
2019-03-20T04:25:04.649Z,-1.14
2019-03-20T04:27:36.540Z,-1.18
2019-03-20T04:30:08.803Z,-1.19
2019-03-20T04:32:40.904Z,-1.06
2019-03-20T04:35:13.402Z,-1.16
2019-03-20T04:37:45.315Z,-1.14
2019-03-20T04:40:17.354Z,-1.07
2019-03-20T04:42:49.359Z,-1.13
2019-03-20T04:45:21.273Z,-1.17
2019-03-20T04:47:53.216Z,-1.20
2019-03-20T04:50:25.294Z,-1.22
2019-03-20T04:52:57.249Z,-1.22
2019-03-20T04:55:29.211Z,-1.28
2019-03-20T04:58:01.331Z,-1.26
2019-03-20T05:00:33.203Z,-1.26
2019-03-20T05:03:05.145Z,-1.27
2019-03-20T05:05:37.012Z,-1.30
2019-03-20T05:08:08.958Z,-1.27
2019-03-20T05:10:41.863Z,-1.28
2019-03-20T05:13:13.817Z,-1.24
2019-03-20T05:15:46.794Z,-1.19
2019-03-20T05:18:18.711Z,-1.15
2019-03-20T05:20:50.675Z,-1.10
2019-03-20T05:23:22.570Z,-1.10
2019-03-20T05:25:54.579Z,-1.05
2019-03-20T05:28:26.450Z,-1.01
2019-03-20T05:30:58.527Z,-0.96
2019-03-20T05:33:42.047Z,-0.89
2019-03-20T05:36:33.578Z,-0.72
2019-03-20T05:39:16.010Z,-0.70
2019-03-20T05:41:54.098Z,-0.69
2019-03-20T05:44:56.858Z,-0.64
2019-03-20T05:47:32.490Z,-0.56
2019-03-20T05:50:06.629Z,-0.47
2019-03-20T05:52:39.955Z,-0.40
2019-03-20T05:55:12.172Z,-0.34
2019-03-20T05:57:44.205Z,-0.23
2019-03-20T06:00:17.020Z,-0.08
2019-03-20T06:02:49.108Z,-0.01
2019-03-20T06:05:21.118Z,0.04
2019-03-20T06:07:56.530Z,0.12
2019-03-20T06:10:28.502Z,0.23
2019-03-20T06:13:00.374Z,0.33
2019-03-20T06:15:32.325Z,0.50
2019-03-20T06:18:04.285Z,0.58
2019-03-20T06:20:36.214Z,0.71
2019-03-20T06:23:08.380Z,0.84
2019-03-20T06:25:40.435Z,0.55
2019-03-20T06:28:12.338Z,0.95
2019-03-20T06:30:44.344Z,1.00
2019-03-20T06:33:16.218Z,1.09
2019-03-20T06:35:48.114Z,1.24
2019-03-20T06:38:20.086Z,1.37
2019-03-20T06:40:52.159Z,1.46
2019-03-20T06:43:24.158Z,1.57
2019-03-20T06:45:56.048Z,1.69
2019-03-20T06:48:27.940Z,1.82
2019-03-20T06:50:59.857Z,2.03
2019-03-20T06:53:32.672Z,2.37
2019-03-20T06:56:04.657Z,2.77
2019-03-20T06:58:36.629Z,3.30
2019-03-20T07:01:18.006Z,3.72
2019-03-20T07:04:46.150Z,3.72
2019-03-20T07:07:43.173Z,3.50
2019-03-20T07:11:02.615Z,3.34
2019-03-20T07:13:35.547Z,3.32
2019-03-20T07:16:07.845Z,3.38
2019-03-20T07:18:40.906Z,3.47
2019-03-20T07:21:12.932Z,3.49
2019-03-20T07:23:44.882Z,3.53
2019-03-20T07:26:18.273Z,3.60
2019-03-20T07:28:50.227Z,3.68
2019-03-20T07:31:22.147Z,3.74
2019-03-20T07:37:36.713Z,3.96
2019-03-20T07:40:09.486Z,4.08
2019-03-20T07:42:41.589Z,4.08
2019-03-20T07:45:13.484Z,4.15
2019-03-20T07:47:45.454Z,4.30
2019-03-20T07:50:17.301Z,4.48
2019-03-20T07:52:49.177Z,4.59
2019-03-20T07:55:21.078Z,4.68
2019-03-20T07:57:53.029Z,4.83
2019-03-20T08:00:27.053Z,4.99
2019-03-20T08:02:58.981Z,5.14
2019-03-20T08:05:32.937Z,5.28
2019-03-20T08:08:07.537Z,5.42
2019-03-20T08:10:38.457Z,5.53
2019-03-20T08:13:10.361Z,5.61
2019-03-20T08:15:42.257Z,5.80
2019-03-20T08:18:14.241Z,5.95
2019-03-20T08:20:46.245Z,6.02
2019-03-20T08:23:18.084Z,6.22
2019-03-20T08:25:50.053Z,6.28
2019-03-20T08:28:22.001Z,6.37
2019-03-20T08:30:54.040Z,6.38
2019-03-20T08:33:26.337Z,6.43
2019-03-20T08:35:58.295Z,6.54
2019-03-20T08:38:30.182Z,6.62
2019-03-20T08:41:02.141Z,6.68
2019-03-20T08:43:35.038Z,6.71
2019-03-20T08:46:06.902Z,6.83
2019-03-20T08:48:38.766Z,6.91
2019-03-20T08:51:10.708Z,6.96
2019-03-20T08:53:42.565Z,7.00
2019-03-20T08:56:14.473Z,7.14
2019-03-20T08:58:46.488Z,7.24
2019-03-20T09:01:28.134Z,7.19
2019-03-20T09:03:52.401Z,7.27
2019-03-20T09:06:24.373Z,7.40
2019-03-20T09:08:56.392Z,7.52
2019-03-20T09:11:29.973Z,7.49
2019-03-20T09:14:01.988Z,7.54
2019-03-20T09:16:33.848Z,7.71
2019-03-20T09:19:05.848Z,7.77
2019-03-20T09:21:37.876Z,7.81
2019-03-20T09:24:09.811Z,7.82
2019-03-20T09:26:41.694Z,7.81
2019-03-20T09:29:18.440Z,7.88
2019-03-20T09:31:47.369Z,7.96
2019-03-20T09:34:19.402Z,8.13
2019-03-20T09:36:51.444Z,8.20
2019-03-20T09:39:23.428Z,8.46
2019-03-20T09:41:55.400Z,8.87
2019-03-20T09:44:27.404Z,9.12
2019-03-20T09:46:59.377Z,9.33
2019-03-20T09:49:31.264Z,9.42
2019-03-20T09:52:03.124Z,9.71
2019-03-20T09:54:35.055Z,9.73
2019-03-20T09:57:06.992Z,9.56
2019-03-20T09:59:41.604Z,9.21
2019-03-20T10:02:13.473Z,9.03
2019-03-20T10:04:45.426Z,8.89
2019-03-20T10:07:17.377Z,8.70
2019-03-20T10:09:49.249Z,8.72
2019-03-20T10:12:21.184Z,8.90
2019-03-20T10:14:53.086Z,8.84
2019-03-20T10:17:24.928Z,8.81
2019-03-20T10:19:56.848Z,8.92
2019-03-20T10:22:28.828Z,9.02
2019-03-20T10:25:00.744Z,9.07
2019-03-20T10:27:32.829Z,9.06
2019-03-20T10:30:05.920Z,9.06
2019-03-20T10:32:37.924Z,9.10
2019-03-20T10:35:10.388Z,9.21
2019-03-20T10:37:42.288Z,9.36
2019-03-20T10:40:16.845Z,9.40
2019-03-20T10:42:48.804Z,9.42
2019-03-20T10:45:23.442Z,9.37
2019-03-20T10:47:55.518Z,9.38
2019-03-20T10:50:27.803Z,9.34
2019-03-20T10:52:59.737Z,9.46
2019-03-20T10:55:31.802Z,9.57
2019-03-20T10:58:03.678Z,9.58
2019-03-20T11:00:35.554Z,9.65
2019-03-20T11:03:07.639Z,9.70
2019-03-20T11:05:39.707Z,9.58
2019-03-20T11:08:13.009Z,9.71
2019-03-20T11:10:49.114Z,9.73
2019-03-20T11:13:25.360Z,9.76
2019-03-20T11:16:01.359Z,9.66
2019-03-20T11:18:33.677Z,9.85
2019-03-20T11:21:05.712Z,9.89
2019-03-20T11:23:38.971Z,9.73
2019-03-20T11:26:13.520Z,9.79
2019-03-20T11:28:47.028Z,9.86
2019-03-20T11:31:20.959Z,9.85
2019-03-20T11:33:52.817Z,9.84
2019-03-20T11:36:24.759Z,10.01
2019-03-20T11:39:05.700Z,10.03
2019-03-20T11:41:42.598Z,9.97
2019-03-20T11:44:25.084Z,9.90
2019-03-20T11:46:59.081Z,10.20
2019-03-20T11:49:35.731Z,10.19
2019-03-20T11:52:11.028Z,10.21
2019-03-20T11:54:43.083Z,10.02
2019-03-20T11:57:17.267Z,10.02
2019-03-20T11:59:49.835Z,10.30
2019-03-20T12:02:28.309Z,10.23
2019-03-20T12:04:57.563Z,10.29
2019-03-20T12:07:31.207Z,10.24
2019-03-20T12:10:05.030Z,10.26
2019-03-20T12:12:58.852Z,10.37
2019-03-20T12:15:42.927Z,10.40
2019-03-20T12:18:16.447Z,10.62
2019-03-20T12:20:50.060Z,10.52
2019-03-20T12:23:26.995Z,10.71
2019-03-20T12:25:58.959Z,10.75
2019-03-20T12:28:35.965Z,10.78
2019-03-20T12:31:08.683Z,10.74
2019-03-20T12:33:40.767Z,10.99
2019-03-20T12:36:12.703Z,10.98
2019-03-20T12:38:44.558Z,11.03
2019-03-20T12:41:16.976Z,11.03
2019-03-20T12:43:48.911Z,11.15
2019-03-20T12:46:20.793Z,11.16
2019-03-20T12:49:03.829Z,11.25
2019-03-20T12:51:38.759Z,11.27
2019-03-20T12:54:18.466Z,11.30
2019-03-20T12:56:52.123Z,11.31
2019-03-20T12:59:24.339Z,11.42
2019-03-20T13:01:56.367Z,11.29
2019-03-20T13:04:30.450Z,11.16
2019-03-20T13:07:02.375Z,11.20
2019-03-20T13:09:34.285Z,11.26
2019-03-20T13:12:10.875Z,11.16
2019-03-20T13:14:55.544Z,11.21
2019-03-20T13:17:30.248Z,11.41
2019-03-20T13:20:04.066Z,11.29
2019-03-20T13:22:36.133Z,11.15
2019-03-20T13:25:17.748Z,11.35
2019-03-20T13:27:51.215Z,11.37
2019-03-20T13:30:30.844Z,11.24
2019-03-20T13:33:02.792Z,11.26
2019-03-20T13:35:35.662Z,11.18
2019-03-20T13:38:07.623Z,11.39
2019-03-20T13:40:39.578Z,11.57
2019-03-20T13:43:11.450Z,11.34
2019-03-20T13:45:43.313Z,11.31
2019-03-20T13:48:15.324Z,11.25
2019-03-20T13:50:47.230Z,11.20
2019-03-20T13:53:19.084Z,11.25
2019-03-20T13:55:50.986Z,11.31
2019-03-20T13:58:22.982Z,11.34
2019-03-20T14:00:55.022Z,11.29
2019-03-20T14:03:27.070Z,11.19
2019-03-20T14:05:59.042Z,11.28
2019-03-20T14:08:31.008Z,11.30
2019-03-20T14:11:02.948Z,11.29
2019-03-20T14:13:34.970Z,11.27
2019-03-20T14:16:06.981Z,11.20
2019-03-20T14:18:38.902Z,11.24
2019-03-20T14:21:10.839Z,11.30
2019-03-20T14:23:42.780Z,11.50
2019-03-20T14:26:14.682Z,11.56
2019-03-20T14:28:46.503Z,11.45
2019-03-20T14:31:18.494Z,11.79
2019-03-20T14:33:50.410Z,12.00
2019-03-20T14:36:22.407Z,12.09
2019-03-20T14:38:54.370Z,11.98
2019-03-20T14:41:26.298Z,11.91
2019-03-20T14:43:58.235Z,11.92
2019-03-20T14:46:30.283Z,11.81
2019-03-20T14:49:02.258Z,11.72
2019-03-20T14:51:34.166Z,11.62
2019-03-20T14:54:06.145Z,11.58
2019-03-20T14:56:37.978Z,11.85
2019-03-20T14:59:09.821Z,11.76
2019-03-20T15:01:42.784Z,11.87
2019-03-20T15:04:14.701Z,11.91
2019-03-20T15:06:46.642Z,11.71
2019-03-20T15:09:18.520Z,11.62
2019-03-20T15:11:50.402Z,11.63
2019-03-20T15:14:24.185Z,11.72
2019-03-20T15:16:56.258Z,11.79
2019-03-20T15:19:28.067Z,11.74
2019-03-20T15:21:59.961Z,11.72
2019-03-20T15:24:31.881Z,11.73
2019-03-20T15:27:03.903Z,11.68
2019-03-20T15:29:35.778Z,11.90
2019-03-20T15:32:07.839Z,11.82
2019-03-20T15:34:55.469Z,11.95
2019-03-20T15:37:22.575Z,11.97
2019-03-20T15:39:56.145Z,11.74
2019-03-20T15:42:30.286Z,11.81
2019-03-20T15:45:04.053Z,11.84
2019-03-20T15:47:39.826Z,11.61
2019-03-20T15:50:16.663Z,11.53
2019-03-20T15:52:55.265Z,11.41
2019-03-20T15:55:46.293Z,11.61
2019-03-20T15:58:15.987Z,11.52
2019-03-20T16:00:54.635Z,11.57
2019-03-20T16:03:35.509Z,11.58
2019-03-20T16:06:07.644Z,11.62
2019-03-20T16:09:22.797Z,11.41
2019-03-20T16:13:30.633Z,11.18
2019-03-20T16:17:29.587Z,11.08
2019-03-20T16:20:17.350Z,10.87
2019-03-20T16:23:34.255Z,10.94
2019-03-20T17:03:46.357Z,9.87
2019-03-20T17:07:09.997Z,9.75
2019-03-20T17:09:41.897Z,9.69
2019-03-20T17:12:14.193Z,9.46
2019-03-20T17:14:46.655Z,9.35
2019-03-20T17:18:40.643Z,9.42
2019-03-20T17:21:14.929Z,9.25
2019-03-20T17:23:49.141Z,9.06
2019-03-20T17:26:23.004Z,8.92
2019-03-20T17:28:55.392Z,8.92
2019-03-20T17:31:27.478Z,8.88
2019-03-20T17:33:59.716Z,8.85
2019-03-20T17:36:33.524Z,8.75
2019-03-20T17:39:16.469Z,8.70
2019-03-20T17:42:03.522Z,8.59
2019-03-20T17:44:49.061Z,8.59
2019-03-20T17:47:56.744Z,8.60
2019-03-20T17:50:36.818Z,8.51
2019-03-20T17:53:24.531Z,8.42
2019-03-20T17:55:58.220Z,8.27
2019-03-20T17:58:34.046Z,8.26
2019-03-20T18:01:09.658Z,8.07
2019-03-20T18:03:43.248Z,8.11
2019-03-20T18:06:23.428Z,8.07
2019-03-20T18:08:59.067Z,8.14
2019-03-20T18:11:33.797Z,8.16
2019-03-20T18:14:13.771Z,8.08
2019-03-20T18:16:58.769Z,8.01
2019-03-20T18:19:38.490Z,8.07
2019-03-20T18:22:16.972Z,7.96
2019-03-20T18:28:43.290Z,7.68
2019-03-20T18:35:21.708Z,7.55
2019-03-20T18:38:05.377Z,7.51
2019-03-20T18:40:38.784Z,7.45
2019-03-20T18:43:34.021Z,7.48
2019-03-20T19:30:53.413Z,8.40
2019-03-20T19:33:25.760Z,8.43
2019-03-20T19:51:15.494Z,8.62
2019-03-20T19:54:04.621Z,8.66
2019-03-20T19:56:49.374Z,8.69
2019-03-20T21:12:33.923Z,8.85
2019-03-20T21:15:07.055Z,8.85
2019-03-20T21:18:05.753Z,8.85
2019-03-20T21:20:39.994Z,8.86
2019-03-20T21:24:08.515Z,8.85
2019-03-20T21:26:58.830Z,8.87
2019-03-20T21:30:47.575Z,8.88
2019-03-20T21:34:16.186Z,8.89
2019-03-20T21:38:00.203Z,8.92
2019-03-20T21:40:56.039Z,8.91
2019-03-20T21:44:32.925Z,8.92
2019-03-20T21:47:32.641Z,8.90
2019-03-20T21:51:10.937Z,8.93
2019-03-20T21:54:43.645Z,8.93
2019-03-20T21:57:48.463Z,8.95
2019-03-20T22:01:30.370Z,8.94
2019-03-20T22:04:03.947Z,8.94
2019-03-20T22:07:10.478Z,8.95
2019-03-20T22:10:51.322Z,8.97
2019-03-20T22:13:50.580Z,9.00
2019-03-20T22:17:19.351Z,9.01
2019-03-20T22:20:22.808Z,9.01
2019-03-20T22:24:16.078Z,9.02
2019-03-20T22:27:30.920Z,9.00
2019-03-20T22:30:03.726Z,8.99
2019-03-20T22:33:29.950Z,8.97
2019-03-20T22:36:29.338Z,8.99
2019-03-20T22:39:59.594Z,9.02
2019-03-20T22:42:56.678Z,9.01
2019-03-20T22:46:50.847Z,9.01
2019-03-20T22:50:30.390Z,9.01
2019-03-20T22:53:50.657Z,9.01
2019-03-20T22:57:27.369Z,9.01
2019-03-20T23:00:00.061Z,9.03
2019-03-20T23:02:52.406Z,9.02
2019-03-20T23:05:25.038Z,9.03
2019-03-20T23:07:57.894Z,9.05
2019-03-20T23:10:30.706Z,9.01
2019-03-20T23:13:03.514Z,8.99
2019-03-20T23:15:36.411Z,9.02
2019-03-20T23:18:09.172Z,9.02
2019-03-20T23:20:41.928Z,9.07
2019-03-20T23:23:14.635Z,9.04
2019-03-20T23:25:47.377Z,8.99
2019-03-20T23:28:20.181Z,9.02
2019-03-20T23:30:53.069Z,9.02
2019-03-20T23:33:26.036Z,9.02
2019-03-20T23:35:58.884Z,9.04
2019-03-20T23:38:31.975Z,9.02
2019-03-20T23:41:05.852Z,9.00
2019-03-20T23:43:39.684Z,8.96
2019-03-20T23:46:12.522Z,8.97
2019-03-20T23:48:56.865Z,8.98
2019-03-20T23:51:29.649Z,9.01
2019-03-20T23:54:02.384Z,9.00
2019-03-20T23:56:36.908Z,8.98
2019-03-20T23:59:10.066Z,8.95
